עמוד ראשי
תמונות לווין תחזית 10-יוםאקליםתחזית ים סופות טרופיות ברקים שדות תעופהשאלות נפוצות עלון אודות
מזג אוויר : אירופה אפריקה אמריקה הצפונית אמריקה הדרומית אסיה אוסטרליה-אוקיאניה אחרים
שפות איש קשר

סלוניקי, יוון

נמל התעופה הבינלאומי סלוניקי מקדוניה

קו רוחב: 40-31N, קו אורך: 022-58E, גובה: 8מטר


METAR: LGTS 260050Z 11005KT CAVOK 09/07 Q1017 NOSIG
TAF: LGTS 252300Z 2600/2624 VRB03KT 9999 FEW025 PROB40 TEMPO 2603/2608 5000 BR SCT006 SCT020 BECMG 2612/2614 25015KT BECMG 2618/2620 VRB03KT

זמן: 04:24 (01:24 UTC)

תצפית מזג אוויר נוכחית

הדו"ח נערך לפני 34דקות, בשעה 00:50 UTC
רוח 5קשר מכיוון מזרח/דרום-מזרח
טמפרטורת 9 צלסיוס
לחות 87%
לחץ 1017 hPa
ראות 10 קילומטר או יותר
ללא עננים שבסיסם נמוך מ 1500 רגל או קומולונימבוס

שנה יחידות

תחזית

הדו"ח נערך לפני 2 שעות ו 24דקות, בשעה 23:00 UTC
תחזית בתוקף מ 26 ב 00 UTC עד 26 ב 24 UTC
רוח 3קשר עם כיוונים משתנים
ראות 10 קילומטר או יותר
מעט עננים בגובה 2500רגל
הסתברות 40% :
זמנית מ -
26 ב 03 UTC עד 26 ב 08 UTC
ראות: 5000מטר
עננים פזורים בגובה 600רגל
עננים פזורים בגובה 2000רגל
אד
יעשה מ
26 ב 12 UTC עד 26 ב 14 UTC
רוח 15קשר מכיוון מערב/דרום-מערב
יעשה מ
26 ב 18 UTC עד 26 ב 20 UTC
רוח 3קשר עם כיוונים משתנים
המידע באתר זה מותנה של תניית פטור
מזג אוויר : אירופה אפריקה אמריקה הצפונית אמריקה הדרומית אסיה אוסטרליה-אוקיאניה אחרים
תמונות לווין תחזית 10-יוםאקליםתחזית ים סופות טרופיות ברקים שדות תעופהשאלות נפוצות שפות איש קשר עלון אודות